sensor_id;sensor_type;location;lat;lon;timestamp;temperature;humidity
6738;DHT22;3406;49.902;8.596;2023-12-20T00:02:03;5.70;99.90
6738;DHT22;3406;49.902;8.596;2023-12-20T00:04:30;5.70;99.90
6738;DHT22;3406;49.902;8.596;2023-12-20T00:06:56;5.70;99.90
6738;DHT22;3406;49.902;8.596;2023-12-20T00:09:24;5.70;99.90
6738;DHT22;3406;49.902;8.596;2023-12-20T00:11:51;5.80;99.90
6738;DHT22;3406;49.902;8.596;2023-12-20T00:14:18;5.80;99.90
6738;DHT22;3406;49.902;8.596;2023-12-20T00:16:44;5.80;99.90
6738;DHT22;3406;49.902;8.596;2023-12-20T00:19:11;5.80;99.90
6738;DHT22;3406;49.902;8.596;2023-12-20T00:21:38;5.80;99.90
6738;DHT22;3406;49.902;8.596;2023-12-20T00:24:05;5.80;99.90
6738;DHT22;3406;49.902;8.596;2023-12-20T00:26:33;5.80;99.90
6738;DHT22;3406;49.902;8.596;2023-12-20T00:29:00;5.80;99.90
6738;DHT22;3406;49.902;8.596;2023-12-20T00:31:26;5.80;99.90
6738;DHT22;3406;49.902;8.596;2023-12-20T00:33:53;5.80;99.90
6738;DHT22;3406;49.902;8.596;2023-12-20T00:36:20;5.70;99.90
6738;DHT22;3406;49.902;8.596;2023-12-20T00:38:46;5.70;99.90
6738;DHT22;3406;49.902;8.596;2023-12-20T00:41:13;5.70;99.90
6738;DHT22;3406;49.902;8.596;2023-12-20T00:43:41;5.70;99.90
6738;DHT22;3406;49.902;8.596;2023-12-20T00:46:08;5.70;99.90
6738;DHT22;3406;49.902;8.596;2023-12-20T00:48:34;5.70;99.90
6738;DHT22;3406;49.902;8.596;2023-12-20T00:51:01;5.70;99.90
6738;DHT22;3406;49.902;8.596;2023-12-20T00:53:28;5.70;99.90
6738;DHT22;3406;49.902;8.596;2023-12-20T00:55:54;5.70;99.90
6738;DHT22;3406;49.902;8.596;2023-12-20T00:58:21;5.70;99.90
6738;DHT22;3406;49.902;8.596;2023-12-20T01:00:49;5.70;99.90
6738;DHT22;3406;49.902;8.596;2023-12-20T01:03:16;5.70;99.90
6738;DHT22;3406;49.902;8.596;2023-12-20T01:05:43;5.70;99.90
6738;DHT22;3406;49.902;8.596;2023-12-20T01:08:09;5.70;99.90
6738;DHT22;3406;49.902;8.596;2023-12-20T01:10:36;5.70;99.90
6738;DHT22;3406;49.902;8.596;2023-12-20T01:13:03;5.70;99.90
6738;DHT22;3406;49.902;8.596;2023-12-20T01:15:30;5.70;99.90
6738;DHT22;3406;49.902;8.596;2023-12-20T01:17:58;5.70;99.90
6738;DHT22;3406;49.902;8.596;2023-12-20T01:20:25;5.70;99.90
6738;DHT22;3406;49.902;8.596;2023-12-20T01:22:51;5.70;99.90
6738;DHT22;3406;49.902;8.596;2023-12-20T01:25:18;5.70;99.90
6738;DHT22;3406;49.902;8.596;2023-12-20T01:27:45;5.70;99.90
6738;DHT22;3406;49.902;8.596;2023-12-20T01:30:12;5.70;99.90
6738;DHT22;3406;49.902;8.596;2023-12-20T01:32:39;5.70;99.90
6738;DHT22;3406;49.902;8.596;2023-12-20T01:38:29;5.70;99.90
6738;DHT22;3406;49.902;8.596;2023-12-20T01:40:55;5.70;99.90
6738;DHT22;3406;49.902;8.596;2023-12-20T01:43:22;5.70;99.90
6738;DHT22;3406;49.902;8.596;2023-12-20T01:45:49;5.70;99.90
6738;DHT22;3406;49.902;8.596;2023-12-20T01:48:16;5.70;99.90
6738;DHT22;3406;49.902;8.596;2023-12-20T01:50:44;5.70;99.90
6738;DHT22;3406;49.902;8.596;2023-12-20T01:53:12;5.70;99.90
6738;DHT22;3406;49.902;8.596;2023-12-20T01:55:40;5.70;99.90
6738;DHT22;3406;49.902;8.596;2023-12-20T01:58:09;5.70;99.90
6738;DHT22;3406;49.902;8.596;2023-12-20T02:00:36;5.70;99.90
6738;DHT22;3406;49.902;8.596;2023-12-20T02:03:03;5.70;99.90
6738;DHT22;3406;49.902;8.596;2023-12-20T02:05:31;5.70;99.90
6738;DHT22;3406;49.902;8.596;2023-12-20T02:07:57;5.70;99.90
6738;DHT22;3406;49.902;8.596;2023-12-20T02:10:24;5.70;99.90
6738;DHT22;3406;49.902;8.596;2023-12-20T02:12:53;5.70;99.90
6738;DHT22;3406;49.902;8.596;2023-12-20T02:15:19;5.70;99.90
6738;DHT22;3406;49.902;8.596;2023-12-20T02:17:47;5.70;99.90
6738;DHT22;3406;49.902;8.596;2023-12-20T02:20:14;5.70;99.90
6738;DHT22;3406;49.902;8.596;2023-12-20T02:22:42;5.70;99.90
6738;DHT22;3406;49.902;8.596;2023-12-20T02:25:08;5.70;99.90
6738;DHT22;3406;49.902;8.596;2023-12-20T02:27:35;5.70;99.90
6738;DHT22;3406;49.902;8.596;2023-12-20T02:30:02;5.70;99.90
6738;DHT22;3406;49.902;8.596;2023-12-20T02:32:29;5.70;99.90
6738;DHT22;3406;49.902;8.596;2023-12-20T02:34:56;5.70;99.90
6738;DHT22;3406;49.902;8.596;2023-12-20T02:37:22;5.70;99.90
6738;DHT22;3406;49.902;8.596;2023-12-20T02:39:50;5.70;99.90
6738;DHT22;3406;49.902;8.596;2023-12-20T02:42:17;5.70;99.90
6738;DHT22;3406;49.902;8.596;2023-12-20T02:44:44;5.70;99.90
6738;DHT22;3406;49.902;8.596;2023-12-20T02:47:10;5.70;99.90
6738;DHT22;3406;49.902;8.596;2023-12-20T02:49:37;5.70;99.90
6738;DHT22;3406;49.902;8.596;2023-12-20T02:52:04;5.70;99.90
6738;DHT22;3406;49.902;8.596;2023-12-20T02:54:31;5.70;99.90
6738;DHT22;3406;49.902;8.596;2023-12-20T02:56:59;5.70;99.90
6738;DHT22;3406;49.902;8.596;2023-12-20T02:59:25;5.60;99.90
6738;DHT22;3406;49.902;8.596;2023-12-20T03:01:52;5.60;99.90
6738;DHT22;3406;49.902;8.596;2023-12-20T03:04:18;5.60;99.90
6738;DHT22;3406;49.902;8.596;2023-12-20T03:06:45;5.60;99.90
6738;DHT22;3406;49.902;8.596;2023-12-20T03:09:12;5.70;99.90
6738;DHT22;3406;49.902;8.596;2023-12-20T03:11:39;5.60;99.90
6738;DHT22;3406;49.902;8.596;2023-12-20T03:14:07;5.70;99.90
6738;DHT22;3406;49.902;8.596;2023-12-20T03:16:33;5.70;99.90
6738;DHT22;3406;49.902;8.596;2023-12-20T03:19:00;5.70;99.90
6738;DHT22;3406;49.902;8.596;2023-12-20T03:21:26;5.70;99.90
6738;DHT22;3406;49.902;8.596;2023-12-20T03:23:53;5.70;99.90
6738;DHT22;3406;49.902;8.596;2023-12-20T03:26:20;5.70;99.90
6738;DHT22;3406;49.902;8.596;2023-12-20T03:28:47;5.70;99.90
6738;DHT22;3406;49.902;8.596;2023-12-20T03:31:16;5.70;99.90
6738;DHT22;3406;49.902;8.596;2023-12-20T03:33:42;5.70;99.90
6738;DHT22;3406;49.902;8.596;2023-12-20T03:36:09;5.70;99.90
6738;DHT22;3406;49.902;8.596;2023-12-20T03:38:35;5.70;99.90
6738;DHT22;3406;49.902;8.596;2023-12-20T03:41:02;5.70;99.90
6738;DHT22;3406;49.902;8.596;2023-12-20T03:43:29;5.70;99.90
6738;DHT22;3406;49.902;8.596;2023-12-20T03:45:55;5.70;99.90
6738;DHT22;3406;49.902;8.596;2023-12-20T03:48:25;5.70;99.90
6738;DHT22;3406;49.902;8.596;2023-12-20T03:50:52;5.70;99.90
6738;DHT22;3406;49.902;8.596;2023-12-20T03:53:18;5.70;99.90
6738;DHT22;3406;49.902;8.596;2023-12-20T03:55:45;5.70;99.90
6738;DHT22;3406;49.902;8.596;2023-12-20T03:58:11;5.70;99.90
6738;DHT22;3406;49.902;8.596;2023-12-20T04:00:38;5.70;99.90
6738;DHT22;3406;49.902;8.596;2023-12-20T04:03:05;5.70;99.90
6738;DHT22;3406;49.902;8.596;2023-12-20T04:05:33;5.70;99.90
6738;DHT22;3406;49.902;8.596;2023-12-20T04:08:01;5.70;99.90
6738;DHT22;3406;49.902;8.596;2023-12-20T04:10:28;5.70;99.90
6738;DHT22;3406;49.902;8.596;2023-12-20T04:12:55;5.70;99.90
6738;DHT22;3406;49.902;8.596;2023-12-20T04:15:21;5.70;99.90
6738;DHT22;3406;49.902;8.596;2023-12-20T04:17:48;5.80;99.90
6738;DHT22;3406;49.902;8.596;2023-12-20T04:20:15;5.80;99.90
6738;DHT22;3406;49.902;8.596;2023-12-20T04:22:43;5.80;99.90
6738;DHT22;3406;49.902;8.596;2023-12-20T04:25:09;5.80;99.90
6738;DHT22;3406;49.902;8.596;2023-12-20T04:27:36;5.80;99.90
6738;DHT22;3406;49.902;8.596;2023-12-20T04:30:03;5.80;99.90
6738;DHT22;3406;49.902;8.596;2023-12-20T04:32:30;5.80;99.90
6738;DHT22;3406;49.902;8.596;2023-12-20T04:34:57;5.80;99.90
6738;DHT22;3406;49.902;8.596;2023-12-20T04:37:23;5.90;99.90
6738;DHT22;3406;49.902;8.596;2023-12-20T04:39:51;5.90;99.90
6738;DHT22;3406;49.902;8.596;2023-12-20T04:42:18;5.90;99.90
6738;DHT22;3406;49.902;8.596;2023-12-20T04:44:45;5.90;99.90
6738;DHT22;3406;49.902;8.596;2023-12-20T04:47:11;5.90;99.90
6738;DHT22;3406;49.902;8.596;2023-12-20T04:49:38;5.90;99.90
6738;DHT22;3406;49.902;8.596;2023-12-20T04:52:05;5.90;99.90
6738;DHT22;3406;49.902;8.596;2023-12-20T04:54:32;5.90;99.90
6738;DHT22;3406;49.902;8.596;2023-12-20T04:57:00;5.90;99.90
6738;DHT22;3406;49.902;8.596;2023-12-20T04:59:26;5.90;99.90
6738;DHT22;3406;49.902;8.596;2023-12-20T05:01:53;5.90;99.90
6738;DHT22;3406;49.902;8.596;2023-12-20T05:04:19;5.90;99.90
6738;DHT22;3406;49.902;8.596;2023-12-20T05:06:46;6.00;99.90
6738;DHT22;3406;49.902;8.596;2023-12-20T05:09:13;6.00;99.90
6738;DHT22;3406;49.902;8.596;2023-12-20T05:11:39;5.90;99.90
6738;DHT22;3406;49.902;8.596;2023-12-20T05:14:07;5.90;99.90
6738;DHT22;3406;49.902;8.596;2023-12-20T05:16:34;5.90;99.90
6738;DHT22;3406;49.902;8.596;2023-12-20T05:19:01;5.80;99.90
6738;DHT22;3406;49.902;8.596;2023-12-20T05:21:31;5.80;99.90
6738;DHT22;3406;49.902;8.596;2023-12-20T05:23:58;5.70;99.90
6738;DHT22;3406;49.902;8.596;2023-12-20T05:26:25;5.70;99.90
6738;DHT22;3406;49.902;8.596;2023-12-20T05:28:52;5.60;99.90
6738;DHT22;3406;49.902;8.596;2023-12-20T05:31:20;5.70;99.90
6738;DHT22;3406;49.902;8.596;2023-12-20T05:33:46;5.70;99.90
6738;DHT22;3406;49.902;8.596;2023-12-20T05:36:13;5.60;99.90
6738;DHT22;3406;49.902;8.596;2023-12-20T05:38:40;5.70;99.90
6738;DHT22;3406;49.902;8.596;2023-12-20T05:41:07;5.70;99.90
6738;DHT22;3406;49.902;8.596;2023-12-20T05:43:33;5.80;99.90
6738;DHT22;3406;49.902;8.596;2023-12-20T05:46:00;5.80;99.90
6738;DHT22;3406;49.902;8.596;2023-12-20T05:48:28;5.90;99.90
6738;DHT22;3406;49.902;8.596;2023-12-20T05:50:55;5.90;99.90
6738;DHT22;3406;49.902;8.596;2023-12-20T05:53:21;5.90;99.90
6738;DHT22;3406;49.902;8.596;2023-12-20T05:55:48;6.00;99.90
6738;DHT22;3406;49.902;8.596;2023-12-20T05:58:15;5.90;99.90
6738;DHT22;3406;49.902;8.596;2023-12-20T06:00:41;5.90;99.90
6738;DHT22;3406;49.902;8.596;2023-12-20T06:03:08;6.00;99.90
6738;DHT22;3406;49.902;8.596;2023-12-20T06:05:36;6.00;99.90
6738;DHT22;3406;49.902;8.596;2023-12-20T06:08:03;6.00;99.90
6738;DHT22;3406;49.902;8.596;2023-12-20T06:13:51;6.00;99.90
6738;DHT22;3406;49.902;8.596;2023-12-20T06:16:19;6.00;99.90
6738;DHT22;3406;49.902;8.596;2023-12-20T06:18:45;5.90;99.90
6738;DHT22;3406;49.902;8.596;2023-12-20T06:21:13;5.90;99.90
6738;DHT22;3406;49.902;8.596;2023-12-20T06:23:40;5.90;99.90
6738;DHT22;3406;49.902;8.596;2023-12-20T06:26:07;5.80;99.90
6738;DHT22;3406;49.902;8.596;2023-12-20T06:28:33;5.80;99.90
6738;DHT22;3406;49.902;8.596;2023-12-20T06:31:00;5.80;99.90
6738;DHT22;3406;49.902;8.596;2023-12-20T06:33:27;5.70;99.90
6738;DHT22;3406;49.902;8.596;2023-12-20T06:35:54;5.70;99.90
6738;DHT22;3406;49.902;8.596;2023-12-20T06:38:22;5.70;99.90
6738;DHT22;3406;49.902;8.596;2023-12-20T06:40:49;5.60;99.90
6738;DHT22;3406;49.902;8.596;2023-12-20T06:43:16;5.60;99.90
6738;DHT22;3406;49.902;8.596;2023-12-20T06:45:42;5.50;99.90
6738;DHT22;3406;49.902;8.596;2023-12-20T06:48:09;5.40;99.90
6738;DHT22;3406;49.902;8.596;2023-12-20T06:50:37;5.30;99.90
6738;DHT22;3406;49.902;8.596;2023-12-20T06:53:05;5.30;99.90
6738;DHT22;3406;49.902;8.596;2023-12-20T06:55:34;5.20;99.90
6738;DHT22;3406;49.902;8.596;2023-12-20T06:58:01;5.10;99.90
6738;DHT22;3406;49.902;8.596;2023-12-20T07:00:28;5.10;99.90
6738;DHT22;3406;49.902;8.596;2023-12-20T07:02:55;5.10;99.90
6738;DHT22;3406;49.902;8.596;2023-12-20T07:05:22;5.00;99.90
6738;DHT22;3406;49.902;8.596;2023-12-20T07:07:48;4.90;99.90
6738;DHT22;3406;49.902;8.596;2023-12-20T07:10:15;4.90;99.90
6738;DHT22;3406;49.902;8.596;2023-12-20T07:12:43;4.90;99.90
6738;DHT22;3406;49.902;8.596;2023-12-20T07:15:10;4.80;99.90
6738;DHT22;3406;49.902;8.596;2023-12-20T07:17:37;4.80;99.90
6738;DHT22;3406;49.902;8.596;2023-12-20T07:20:05;4.80;99.90
6738;DHT22;3406;49.902;8.596;2023-12-20T07:22:35;4.70;99.90
6738;DHT22;3406;49.902;8.596;2023-12-20T07:25:01;4.70;99.90
6738;DHT22;3406;49.902;8.596;2023-12-20T07:27:29;4.70;99.90
6738;DHT22;3406;49.902;8.596;2023-12-20T07:29:57;4.70;99.90
6738;DHT22;3406;49.902;8.596;2023-12-20T07:32:23;4.60;99.90
6738;DHT22;3406;49.902;8.596;2023-12-20T07:34:50;4.70;99.90
6738;DHT22;3406;49.902;8.596;2023-12-20T07:37:17;4.70;99.90
6738;DHT22;3406;49.902;8.596;2023-12-20T07:39:43;4.70;99.90
6738;DHT22;3406;49.902;8.596;2023-12-20T07:42:10;4.70;99.90
6738;DHT22;3406;49.902;8.596;2023-12-20T07:44:37;4.80;99.90
6738;DHT22;3406;49.902;8.596;2023-12-20T07:47:05;4.80;99.90
6738;DHT22;3406;49.902;8.596;2023-12-20T07:49:32;4.90;99.90
6738;DHT22;3406;49.902;8.596;2023-12-20T07:51:59;4.90;99.90
6738;DHT22;3406;49.902;8.596;2023-12-20T07:54:25;4.90;99.90
6738;DHT22;3406;49.902;8.596;2023-12-20T07:56:52;5.00;99.90
6738;DHT22;3406;49.902;8.596;2023-12-20T07:59:19;5.00;99.90
6738;DHT22;3406;49.902;8.596;2023-12-20T08:01:45;5.10;99.90
6738;DHT22;3406;49.902;8.596;2023-12-20T08:04:13;5.10;99.90
6738;DHT22;3406;49.902;8.596;2023-12-20T08:06:40;5.10;99.90
6738;DHT22;3406;49.902;8.596;2023-12-20T08:09:06;5.10;99.90
6738;DHT22;3406;49.902;8.596;2023-12-20T08:11:33;5.10;99.90
6738;DHT22;3406;49.902;8.596;2023-12-20T08:14:00;5.10;99.90
6738;DHT22;3406;49.902;8.596;2023-12-20T08:16:26;5.10;99.90
6738;DHT22;3406;49.902;8.596;2023-12-20T08:18:53;5.10;99.90
6738;DHT22;3406;49.902;8.596;2023-12-20T08:21:20;5.10;99.90
6738;DHT22;3406;49.902;8.596;2023-12-20T08:23:48;5.00;99.90
6738;DHT22;3406;49.902;8.596;2023-12-20T08:26:18;5.10;99.90
6738;DHT22;3406;49.902;8.596;2023-12-20T08:28:46;5.10;99.90
6738;DHT22;3406;49.902;8.596;2023-12-20T08:31:14;5.20;99.90
6738;DHT22;3406;49.902;8.596;2023-12-20T08:33:41;5.20;99.90
6738;DHT22;3406;49.902;8.596;2023-12-20T08:36:08;5.20;99.90
6738;DHT22;3406;49.902;8.596;2023-12-20T08:38:36;5.30;99.90
6738;DHT22;3406;49.902;8.596;2023-12-20T08:41:03;5.30;99.90
6738;DHT22;3406;49.902;8.596;2023-12-20T08:43:30;5.30;99.90
6738;DHT22;3406;49.902;8.596;2023-12-20T08:45:57;5.40;99.90
6738;DHT22;3406;49.902;8.596;2023-12-20T08:48:24;5.40;99.90
6738;DHT22;3406;49.902;8.596;2023-12-20T08:50:51;5.40;99.90
6738;DHT22;3406;49.902;8.596;2023-12-20T08:53:17;5.40;99.90
6738;DHT22;3406;49.902;8.596;2023-12-20T08:55:46;5.40;99.90
6738;DHT22;3406;49.902;8.596;2023-12-20T08:58:13;5.50;99.90
6738;DHT22;3406;49.902;8.596;2023-12-20T09:00:40;5.50;99.90
6738;DHT22;3406;49.902;8.596;2023-12-20T09:03:06;5.50;99.90
6738;DHT22;3406;49.902;8.596;2023-12-20T09:05:33;5.50;99.90
6738;DHT22;3406;49.902;8.596;2023-12-20T09:08:00;5.50;99.90
6738;DHT22;3406;49.902;8.596;2023-12-20T09:10:26;5.60;99.90
6738;DHT22;3406;49.902;8.596;2023-12-20T09:12:54;5.70;99.90
6738;DHT22;3406;49.902;8.596;2023-12-20T09:15:22;5.70;99.90
6738;DHT22;3406;49.902;8.596;2023-12-20T09:17:49;5.70;99.90
6738;DHT22;3406;49.902;8.596;2023-12-20T09:20:16;5.70;99.90
6738;DHT22;3406;49.902;8.596;2023-12-20T09:22:42;5.80;99.90
6738;DHT22;3406;49.902;8.596;2023-12-20T09:25:10;5.80;99.90
6738;DHT22;3406;49.902;8.596;2023-12-20T09:27:38;5.80;99.90
6738;DHT22;3406;49.902;8.596;2023-12-20T09:30:07;5.90;99.90
6738;DHT22;3406;49.902;8.596;2023-12-20T09:32:34;5.90;99.90
6738;DHT22;3406;49.902;8.596;2023-12-20T09:35:01;5.90;99.90
6738;DHT22;3406;49.902;8.596;2023-12-20T09:37:28;5.90;99.90
6738;DHT22;3406;49.902;8.596;2023-12-20T09:39:54;5.90;99.90
6738;DHT22;3406;49.902;8.596;2023-12-20T09:42:24;5.90;99.90
6738;DHT22;3406;49.902;8.596;2023-12-20T09:44:52;6.00;99.90
6738;DHT22;3406;49.902;8.596;2023-12-20T09:47:23;6.00;99.90
6738;DHT22;3406;49.902;8.596;2023-12-20T09:49:50;6.00;99.90
6738;DHT22;3406;49.902;8.596;2023-12-20T09:52:18;6.10;99.90
6738;DHT22;3406;49.902;8.596;2023-12-20T09:54:45;6.10;99.90
6738;DHT22;3406;49.902;8.596;2023-12-20T09:57:16;6.20;99.90
6738;DHT22;3406;49.902;8.596;2023-12-20T09:59:42;6.20;99.90
6738;DHT22;3406;49.902;8.596;2023-12-20T10:02:12;6.30;99.90
6738;DHT22;3406;49.902;8.596;2023-12-20T10:04:46;6.40;99.90
6738;DHT22;3406;49.902;8.596;2023-12-20T10:07:13;6.40;99.90
6738;DHT22;3406;49.902;8.596;2023-12-20T10:09:40;6.40;99.90
6738;DHT22;3406;49.902;8.596;2023-12-20T10:12:08;6.50;99.90
6738;DHT22;3406;49.902;8.596;2023-12-20T10:14:35;6.60;99.90
6738;DHT22;3406;49.902;8.596;2023-12-20T10:17:02;6.60;99.90
6738;DHT22;3406;49.902;8.596;2023-12-20T10:19:30;6.60;99.90
6738;DHT22;3406;49.902;8.596;2023-12-20T10:21:59;6.70;99.90
6738;DHT22;3406;49.902;8.596;2023-12-20T10:24:28;6.70;99.90
6738;DHT22;3406;49.902;8.596;2023-12-20T10:27:01;6.70;99.90
6738;DHT22;3406;49.902;8.596;2023-12-20T10:29:31;6.80;99.90
6738;DHT22;3406;49.902;8.596;2023-12-20T10:31:58;6.90;99.90
6738;DHT22;3406;49.902;8.596;2023-12-20T10:34:25;6.90;99.90
6738;DHT22;3406;49.902;8.596;2023-12-20T10:36:52;6.90;99.90
6738;DHT22;3406;49.902;8.596;2023-12-20T10:39:20;7.00;99.90
6738;DHT22;3406;49.902;8.596;2023-12-20T10:41:47;7.00;99.90
6738;DHT22;3406;49.902;8.596;2023-12-20T10:44:15;7.00;99.90
6738;DHT22;3406;49.902;8.596;2023-12-20T10:46:42;7.00;99.90
6738;DHT22;3406;49.902;8.596;2023-12-20T10:49:16;7.10;99.90
6738;DHT22;3406;49.902;8.596;2023-12-20T10:51:44;7.10;99.90
6738;DHT22;3406;49.902;8.596;2023-12-20T10:54:12;7.20;99.90
6738;DHT22;3406;49.902;8.596;2023-12-20T10:56:40;7.40;99.90
6738;DHT22;3406;49.902;8.596;2023-12-20T10:59:10;7.40;99.90
6738;DHT22;3406;49.902;8.596;2023-12-20T11:01:38;7.30;99.70
6738;DHT22;3406;49.902;8.596;2023-12-20T11:04:09;7.30;99.60
6738;DHT22;3406;49.902;8.596;2023-12-20T11:06:45;7.30;99.50
6738;DHT22;3406;49.902;8.596;2023-12-20T11:09:19;7.30;99.50
6738;DHT22;3406;49.902;8.596;2023-12-20T11:12:06;7.30;99.40
6738;DHT22;3406;49.902;8.596;2023-12-20T11:14:40;7.30;99.10
6738;DHT22;3406;49.902;8.596;2023-12-20T11:17:09;7.40;99.00
6738;DHT22;3406;49.902;8.596;2023-12-20T11:19:38;7.40;98.70
6738;DHT22;3406;49.902;8.596;2023-12-20T11:22:04;7.40;98.50
6738;DHT22;3406;49.902;8.596;2023-12-20T11:24:33;7.40;98.10
6738;DHT22;3406;49.902;8.596;2023-12-20T11:27:04;7.50;98.00
6738;DHT22;3406;49.902;8.596;2023-12-20T11:29:32;7.50;97.90
6738;DHT22;3406;49.902;8.596;2023-12-20T11:32:01;7.50;97.80
6738;DHT22;3406;49.902;8.596;2023-12-20T11:34:29;7.50;97.70
6738;DHT22;3406;49.902;8.596;2023-12-20T11:36:58;7.50;97.70
6738;DHT22;3406;49.902;8.596;2023-12-20T11:39:26;7.60;97.70
6738;DHT22;3406;49.902;8.596;2023-12-20T11:41:54;7.60;97.70
6738;DHT22;3406;49.902;8.596;2023-12-20T11:44:25;7.60;97.70
6738;DHT22;3406;49.902;8.596;2023-12-20T11:46:52;7.60;97.70
6738;DHT22;3406;49.902;8.596;2023-12-20T11:49:23;7.60;97.60
6738;DHT22;3406;49.902;8.596;2023-12-20T11:51:49;7.70;97.60
6738;DHT22;3406;49.902;8.596;2023-12-20T11:54:16;7.70;97.50
6738;DHT22;3406;49.902;8.596;2023-12-20T11:56:43;7.80;97.40
6738;DHT22;3406;49.902;8.596;2023-12-20T11:59:10;7.80;97.20
6738;DHT22;3406;49.902;8.596;2023-12-20T12:01:38;7.70;97.10
6738;DHT22;3406;49.902;8.596;2023-12-20T12:04:05;7.80;97.10
6738;DHT22;3406;49.902;8.596;2023-12-20T12:06:32;7.80;97.00
6738;DHT22;3406;49.902;8.596;2023-12-20T12:08:58;7.70;96.70
6738;DHT22;3406;49.902;8.596;2023-12-20T12:11:25;7.80;96.60
6738;DHT22;3406;49.902;8.596;2023-12-20T12:13:52;7.80;96.50
6738;DHT22;3406;49.902;8.596;2023-12-20T12:16:20;7.80;96.10
6738;DHT22;3406;49.902;8.596;2023-12-20T12:18:55;7.80;95.70
6738;DHT22;3406;49.902;8.596;2023-12-20T12:21:24;7.80;95.00
6738;DHT22;3406;49.902;8.596;2023-12-20T12:23:51;7.80;94.70
6738;DHT22;3406;49.902;8.596;2023-12-20T12:26:18;7.80;94.20
6738;DHT22;3406;49.902;8.596;2023-12-20T12:28:45;7.80;93.80
6738;DHT22;3406;49.902;8.596;2023-12-20T12:31:13;7.80;93.50
6738;DHT22;3406;49.902;8.596;2023-12-20T12:33:41;7.80;93.10
6738;DHT22;3406;49.902;8.596;2023-12-20T12:36:10;7.90;93.00
6738;DHT22;3406;49.902;8.596;2023-12-20T12:38:37;7.90;92.90
6738;DHT22;3406;49.902;8.596;2023-12-20T12:41:04;7.90;92.80
6738;DHT22;3406;49.902;8.596;2023-12-20T12:43:31;8.00;92.80
6738;DHT22;3406;49.902;8.596;2023-12-20T12:45:58;8.10;92.70
6738;DHT22;3406;49.902;8.596;2023-12-20T12:48:25;8.20;92.60
6738;DHT22;3406;49.902;8.596;2023-12-20T12:50:53;8.30;92.30
6738;DHT22;3406;49.902;8.596;2023-12-20T12:53:21;8.30;92.00
6738;DHT22;3406;49.902;8.596;2023-12-20T12:55:48;8.30;91.80
6738;DHT22;3406;49.902;8.596;2023-12-20T12:58:14;8.30;92.00
6738;DHT22;3406;49.902;8.596;2023-12-20T13:00:41;8.30;91.70
6738;DHT22;3406;49.902;8.596;2023-12-20T13:03:08;8.30;91.50
6738;DHT22;3406;49.902;8.596;2023-12-20T13:05:34;8.20;91.50
6738;DHT22;3406;49.902;8.596;2023-12-20T13:08:01;8.20;91.50
6738;DHT22;3406;49.902;8.596;2023-12-20T13:10:29;8.10;91.60
6738;DHT22;3406;49.902;8.596;2023-12-20T13:12:56;8.10;91.50
6738;DHT22;3406;49.902;8.596;2023-12-20T13:15:22;8.10;91.50
6738;DHT22;3406;49.902;8.596;2023-12-20T13:17:49;8.10;91.40
6738;DHT22;3406;49.902;8.596;2023-12-20T13:20:16;8.10;91.20
6738;DHT22;3406;49.902;8.596;2023-12-20T13:22:43;8.10;91.00
6738;DHT22;3406;49.902;8.596;2023-12-20T13:25:09;8.20;91.10
6738;DHT22;3406;49.902;8.596;2023-12-20T13:27:37;8.20;91.00
6738;DHT22;3406;49.902;8.596;2023-12-20T13:30:05;8.30;90.80
6738;DHT22;3406;49.902;8.596;2023-12-20T13:32:31;8.30;90.70
6738;DHT22;3406;49.902;8.596;2023-12-20T13:34:58;8.40;90.50
6738;DHT22;3406;49.902;8.596;2023-12-20T13:37:25;8.50;90.60
6738;DHT22;3406;49.902;8.596;2023-12-20T13:39:51;8.50;90.10
6738;DHT22;3406;49.902;8.596;2023-12-20T13:42:18;8.50;90.00
6738;DHT22;3406;49.902;8.596;2023-12-20T13:44:47;8.50;89.90
6738;DHT22;3406;49.902;8.596;2023-12-20T13:47:13;8.40;89.50
6738;DHT22;3406;49.902;8.596;2023-12-20T13:49:40;8.40;89.40
6738;DHT22;3406;49.902;8.596;2023-12-20T13:52:07;8.40;89.60
6738;DHT22;3406;49.902;8.596;2023-12-20T13:54:34;8.40;89.60
6738;DHT22;3406;49.902;8.596;2023-12-20T13:57:00;8.30;89.30
6738;DHT22;3406;49.902;8.596;2023-12-20T13:59:28;8.30;89.30
6738;DHT22;3406;49.902;8.596;2023-12-20T14:01:56;8.30;88.90
6738;DHT22;3406;49.902;8.596;2023-12-20T14:04:23;8.30;88.90
6738;DHT22;3406;49.902;8.596;2023-12-20T14:06:49;8.30;88.80
6738;DHT22;3406;49.902;8.596;2023-12-20T14:09:16;8.40;88.60
6738;DHT22;3406;49.902;8.596;2023-12-20T14:11:43;8.30;88.40
6738;DHT22;3406;49.902;8.596;2023-12-20T14:14:09;8.30;88.30
6738;DHT22;3406;49.902;8.596;2023-12-20T14:16:36;8.20;88.20
6738;DHT22;3406;49.902;8.596;2023-12-20T14:19:04;8.20;88.10
6738;DHT22;3406;49.902;8.596;2023-12-20T14:21:32;8.20;88.10
6738;DHT22;3406;49.902;8.596;2023-12-20T14:23:59;8.20;88.20
6738;DHT22;3406;49.902;8.596;2023-12-20T14:26:26;8.20;88.20
6738;DHT22;3406;49.902;8.596;2023-12-20T14:28:54;8.20;88.30
6738;DHT22;3406;49.902;8.596;2023-12-20T14:31:21;8.20;88.20
6738;DHT22;3406;49.902;8.596;2023-12-20T14:33:49;8.10;88.00
6738;DHT22;3406;49.902;8.596;2023-12-20T14:36:21;8.10;88.00
6738;DHT22;3406;49.902;8.596;2023-12-20T14:38:48;8.10;88.00
6738;DHT22;3406;49.902;8.596;2023-12-20T14:41:15;8.10;87.80
6738;DHT22;3406;49.902;8.596;2023-12-20T14:43:42;8.10;87.70
6738;DHT22;3406;49.902;8.596;2023-12-20T14:46:09;8.10;87.50
6738;DHT22;3406;49.902;8.596;2023-12-20T14:48:36;8.10;87.60
6738;DHT22;3406;49.902;8.596;2023-12-20T14:51:03;8.10;87.50
6738;DHT22;3406;49.902;8.596;2023-12-20T14:53:31;8.10;87.50
6738;DHT22;3406;49.902;8.596;2023-12-20T14:55:57;8.10;87.40
6738;DHT22;3406;49.902;8.596;2023-12-20T14:58:24;8.10;87.40
6738;DHT22;3406;49.902;8.596;2023-12-20T15:00:51;8.10;87.40
6738;DHT22;3406;49.902;8.596;2023-12-20T15:03:18;8.10;87.30
6738;DHT22;3406;49.902;8.596;2023-12-20T15:05:44;8.00;87.10
6738;DHT22;3406;49.902;8.596;2023-12-20T15:08:13;8.00;87.20
6738;DHT22;3406;49.902;8.596;2023-12-20T15:10:41;8.00;87.30
6738;DHT22;3406;49.902;8.596;2023-12-20T15:13:08;8.00;87.30
6738;DHT22;3406;49.902;8.596;2023-12-20T15:15:34;8.00;87.30
6738;DHT22;3406;49.902;8.596;2023-12-20T15:18:03;8.00;87.30
6738;DHT22;3406;49.902;8.596;2023-12-20T15:20:30;7.90;87.30
6738;DHT22;3406;49.902;8.596;2023-12-20T15:22:58;7.90;87.30
6738;DHT22;3406;49.902;8.596;2023-12-20T15:25:30;7.90;87.40
6738;DHT22;3406;49.902;8.596;2023-12-20T15:27:58;7.80;87.30
6738;DHT22;3406;49.902;8.596;2023-12-20T15:30:25;7.80;87.50
6738;DHT22;3406;49.902;8.596;2023-12-20T15:32:51;7.80;87.60
6738;DHT22;3406;49.902;8.596;2023-12-20T15:35:18;7.80;87.60
6738;DHT22;3406;49.902;8.596;2023-12-20T15:37:45;7.80;87.60
6738;DHT22;3406;49.902;8.596;2023-12-20T15:40:11;7.80;87.70
6738;DHT22;3406;49.902;8.596;2023-12-20T15:42:39;7.80;87.70
6738;DHT22;3406;49.902;8.596;2023-12-20T15:45:08;7.80;87.70
6738;DHT22;3406;49.902;8.596;2023-12-20T15:47:35;7.80;87.80
6738;DHT22;3406;49.902;8.596;2023-12-20T15:50:02;7.80;87.90
6738;DHT22;3406;49.902;8.596;2023-12-20T15:52:29;7.80;87.90
6738;DHT22;3406;49.902;8.596;2023-12-20T15:54:56;7.70;87.80
6738;DHT22;3406;49.902;8.596;2023-12-20T15:57:23;7.70;87.90
6738;DHT22;3406;49.902;8.596;2023-12-20T15:59:49;7.70;88.00
6738;DHT22;3406;49.902;8.596;2023-12-20T16:02:17;7.70;88.10
6738;DHT22;3406;49.902;8.596;2023-12-20T16:04:45;7.70;88.30
6738;DHT22;3406;49.902;8.596;2023-12-20T16:07:12;7.70;88.40
6738;DHT22;3406;49.902;8.596;2023-12-20T16:09:38;7.60;88.30
6738;DHT22;3406;49.902;8.596;2023-12-20T16:12:06;7.60;88.60
6738;DHT22;3406;49.902;8.596;2023-12-20T16:14:32;7.60;88.80
6738;DHT22;3406;49.902;8.596;2023-12-20T16:16:59;7.60;88.90
6738;DHT22;3406;49.902;8.596;2023-12-20T16:19:27;7.60;89.30
6738;DHT22;3406;49.902;8.596;2023-12-20T16:21:54;7.50;89.20
6738;DHT22;3406;49.902;8.596;2023-12-20T16:24:20;7.50;90.00